createdAt,value
2017-09-21T00:00:03.857Z,15.80
2017-09-21T00:02:59.049Z,15.79
2017-09-21T00:05:54.143Z,15.79
2017-09-21T00:08:49.293Z,15.79
2017-09-21T00:11:44.438Z,15.79
2017-09-21T00:14:39.636Z,15.79
2017-09-21T00:17:34.805Z,15.79
2017-09-21T00:20:29.962Z,15.79
2017-09-21T00:23:25.134Z,15.79
2017-09-21T00:26:20.164Z,15.78
2017-09-21T00:32:10.506Z,15.77
2017-09-21T00:35:05.602Z,15.76
2017-09-21T00:38:00.748Z,15.75
2017-09-21T00:40:55.958Z,15.74
2017-09-21T00:43:51.104Z,15.74
2017-09-21T00:46:46.127Z,15.73
2017-09-21T00:49:41.284Z,15.71
2017-09-21T00:52:36.463Z,15.71
2017-09-21T00:55:31.624Z,15.71
2017-09-21T00:59:57.282Z,15.72
2017-09-21T01:02:42.623Z,15.80
2017-09-21T01:05:37.374Z,15.83
2017-09-21T01:08:32.458Z,15.83
2017-09-21T01:11:27.618Z,15.81
2017-09-21T01:15:53.211Z,15.78
2017-09-21T01:18:38.578Z,15.84
2017-09-21T01:21:33.268Z,15.87
2017-09-21T01:24:28.269Z,15.86
2017-09-21T01:27:23.386Z,15.83
2017-09-21T01:30:18.502Z,15.80
2017-09-21T01:36:48.348Z,15.85
2017-09-21T01:39:32.905Z,15.98
2017-09-21T01:42:27.474Z,16.01
2017-09-21T01:45:22.354Z,16.00
2017-09-21T01:48:17.409Z,15.96
2017-09-21T01:51:12.404Z,15.91
2017-09-21T02:00:37.950Z,16.04
2017-09-21T02:03:32.418Z,16.07
2017-09-21T02:06:27.246Z,16.04
2017-09-21T02:09:22.259Z,16.00
2017-09-21T02:12:17.266Z,15.94
2017-09-21T02:15:12.494Z,15.89
2017-09-21T02:23:23.967Z,15.94
2017-09-21T02:26:08.221Z,16.09
2017-09-21T02:29:02.458Z,16.11
2017-09-21T02:31:57.237Z,16.07
2017-09-21T02:34:52.262Z,16.00
2017-09-21T02:38:55.109Z,15.91
2017-09-21T02:41:40.941Z,15.92
2017-09-21T02:50:26.164Z,16.06
2017-09-21T02:56:04.461Z,16.20
2017-09-21T02:58:59.300Z,16.14
2017-09-21T03:01:54.231Z,16.06
2017-09-21T03:04:49.248Z,15.97
2017-09-21T03:13:23.341Z,16.02
2017-09-21T03:16:07.455Z,16.15
2017-09-21T03:19:01.664Z,16.14
2017-09-21T03:21:56.415Z,16.08
2017-09-21T03:24:51.245Z,15.98
2017-09-21T03:31:20.857Z,15.88
2017-09-21T03:34:05.345Z,15.96
2017-09-21T03:36:59.707Z,15.95
2017-09-21T03:39:54.549Z,15.89
2017-09-21T03:42:49.562Z,15.81
2017-09-21T03:54:01.971Z,15.96
2017-09-21T03:59:39.833Z,16.07
2017-09-21T04:02:34.556Z,15.98
2017-09-21T04:05:29.548Z,15.88
2017-09-21T04:08:24.621Z,15.78
2017-09-21T04:25:10.286Z,16.18
2017-09-21T04:28:04.354Z,16.17
2017-09-21T04:30:58.931Z,16.07
2017-09-21T04:33:53.900Z,15.94
2017-09-21T04:44:09.538Z,15.92
2017-09-21T04:46:53.456Z,16.02
2017-09-21T04:49:47.546Z,15.99
2017-09-21T04:52:42.288Z,15.90
2017-09-21T05:04:50.930Z,15.99
2017-09-21T05:07:34.863Z,16.07
2017-09-21T05:10:28.917Z,16.04
2017-09-21T05:13:23.566Z,15.93
2017-09-21T05:16:18.402Z,15.81
2017-09-21T05:29:12.240Z,15.89
2017-09-21T05:31:56.029Z,15.97
2017-09-21T05:34:50.072Z,15.92
2017-09-21T05:37:44.743Z,15.82
2017-09-21T05:51:46.226Z,15.99
2017-09-21T05:54:30.030Z,16.07
2017-09-21T05:57:24.041Z,16.02
2017-09-21T06:10:28.851Z,16.15
2017-09-21T06:13:12.664Z,16.24
2017-09-21T06:16:06.748Z,16.21
2017-09-21T06:29:56.785Z,16.52
2017-09-21T06:32:40.664Z,16.65
2017-09-21T06:35:34.762Z,16.68
2017-09-21T06:38:29.490Z,16.63
2017-09-21T06:41:24.582Z,16.56
2017-09-21T06:49:35.909Z,16.60
2017-09-21T06:52:20.098Z,16.72
2017-09-21T06:55:14.345Z,16.74
2017-09-21T06:58:09.172Z,16.70
2017-09-21T07:01:03.957Z,16.65
2017-09-21T07:08:18.990Z,16.69
2017-09-21T07:11:03.242Z,16.81
2017-09-21T07:13:57.594Z,16.84
2017-09-21T07:16:52.390Z,16.83
2017-09-21T07:19:47.290Z,16.81
2017-09-21T07:22:42.248Z,16.78
2017-09-21T07:25:37.428Z,16.76
2017-09-21T07:31:44.746Z,16.80
2017-09-21T07:34:29.173Z,16.95
2017-09-21T07:37:23.666Z,17.01
2017-09-21T07:40:18.557Z,17.03
2017-09-21T07:43:13.683Z,17.03
2017-09-21T07:46:08.827Z,17.03
2017-09-21T07:50:45.730Z,17.05
2017-09-21T07:53:30.899Z,17.17
2017-09-21T07:56:25.649Z,17.26
2017-09-21T07:59:20.626Z,17.30
2017-09-21T08:02:15.662Z,17.31
2017-09-21T08:05:10.878Z,17.29
2017-09-21T08:08:06.004Z,17.28
2017-09-21T08:11:01.246Z,17.29
2017-09-21T08:13:56.375Z,17.29
2017-09-21T08:16:51.445Z,17.28
2017-09-21T08:22:41.711Z,17.26
2017-09-21T08:25:36.981Z,17.28
2017-09-21T08:28:32.148Z,17.31
2017-09-21T08:31:27.339Z,17.34
2017-09-21T08:34:22.528Z,17.41
2017-09-21T08:37:17.694Z,17.46
2017-09-21T08:40:12.953Z,17.50
2017-09-21T08:46:03.453Z,17.58
2017-09-21T08:48:58.630Z,17.63
2017-09-21T08:51:53.835Z,17.69
2017-09-21T08:54:48.964Z,17.77
2017-09-21T08:57:44.177Z,17.84
2017-09-21T09:00:39.398Z,17.91
2017-09-21T09:03:34.779Z,18.00
2017-09-21T09:06:30.252Z,18.20
2017-09-21T09:09:25.804Z,18.43
2017-09-21T09:12:21.333Z,18.67
2017-09-21T09:15:16.969Z,18.93
2017-09-21T09:18:12.416Z,19.10
2017-09-21T09:21:07.816Z,19.20
2017-09-21T09:24:03.222Z,19.25
2017-09-21T09:26:58.748Z,19.32
2017-09-21T09:29:54.193Z,19.43
2017-09-21T09:32:49.768Z,19.54
2017-09-21T09:38:41.111Z,20.07
2017-09-21T09:41:36.753Z,20.22
2017-09-21T09:44:32.207Z,20.26
2017-09-21T09:47:27.707Z,20.23
2017-09-21T09:50:23.283Z,20.19
2017-09-21T09:53:18.697Z,20.25
2017-09-21T09:56:14.199Z,20.37
2017-09-21T09:59:09.799Z,20.56
2017-09-21T10:02:05.491Z,20.78
2017-09-21T10:05:01.178Z,21.00
2017-09-21T10:07:56.820Z,21.24
2017-09-21T10:10:52.803Z,21.43
2017-09-21T10:13:48.503Z,21.46
2017-09-21T10:16:43.993Z,21.42
2017-09-21T10:19:39.477Z,21.36
2017-09-21T10:22:35.030Z,21.24
2017-09-21T10:25:30.523Z,21.10
2017-09-21T10:28:26.013Z,20.99
2017-09-21T10:31:21.404Z,20.96
2017-09-21T10:34:16.858Z,20.96
2017-09-21T10:37:12.369Z,20.91
2017-09-21T10:40:07.774Z,20.84
2017-09-21T10:43:03.111Z,20.74
2017-09-21T10:45:58.503Z,20.64
2017-09-21T10:48:53.919Z,20.53
2017-09-21T10:51:49.406Z,20.43
2017-09-21T10:54:44.959Z,20.34
2017-09-21T10:57:40.496Z,20.26
2017-09-21T11:00:36.048Z,20.21
2017-09-21T11:03:31.457Z,20.18
2017-09-21T11:06:26.902Z,20.15
2017-09-21T11:09:22.330Z,20.11
2017-09-21T11:12:17.831Z,20.08
2017-09-21T11:15:13.084Z,20.06
2017-09-21T11:18:08.449Z,20.03
2017-09-21T11:23:59.251Z,19.99
2017-09-21T11:26:54.565Z,19.96
2017-09-21T11:29:49.990Z,19.93
2017-09-21T11:32:45.285Z,19.90
2017-09-21T11:35:40.592Z,19.88
2017-09-21T11:38:35.942Z,19.86
2017-09-21T11:41:31.305Z,19.82
2017-09-21T11:44:26.556Z,19.77
2017-09-21T11:47:21.933Z,19.71
2017-09-21T11:50:17.256Z,19.64
2017-09-21T11:53:12.724Z,19.58
2017-09-21T11:59:03.414Z,19.47
2017-09-21T12:01:58.572Z,19.42
2017-09-21T12:04:53.887Z,19.36
2017-09-21T12:10:44.449Z,19.27
2017-09-21T12:13:39.737Z,19.23
2017-09-21T12:16:34.942Z,19.18
2017-09-21T12:19:30.197Z,19.14
2017-09-21T12:22:25.514Z,19.11
2017-09-21T12:25:20.791Z,19.08
2017-09-21T12:28:16.153Z,19.04
2017-09-21T12:31:11.363Z,19.01
2017-09-21T12:34:06.575Z,18.98
2017-09-21T12:37:01.894Z,18.95
2017-09-21T12:39:57.119Z,18.94
2017-09-21T12:42:52.430Z,18.91
2017-09-21T12:45:47.742Z,18.88
2017-09-21T12:48:43.016Z,18.85
2017-09-21T12:51:38.369Z,18.82
2017-09-21T12:54:33.732Z,18.78
2017-09-21T12:57:29.012Z,18.75
2017-09-21T13:00:24.264Z,18.72
2017-09-21T13:03:19.528Z,18.68
2017-09-21T13:06:14.765Z,18.64
2017-09-21T13:09:10.042Z,18.60
2017-09-21T13:17:55.923Z,18.50
2017-09-21T13:20:51.092Z,18.48
2017-09-21T13:23:46.308Z,18.47
2017-09-21T13:26:41.514Z,18.46
2017-09-21T13:29:36.723Z,18.45
2017-09-21T13:32:32.001Z,18.44
2017-09-21T13:35:27.234Z,18.43
2017-09-21T13:38:22.485Z,18.42
2017-09-21T13:41:17.693Z,18.42
2017-09-21T13:44:12.980Z,18.42
2017-09-21T13:47:08.242Z,18.43
2017-09-21T13:50:03.452Z,18.44
2017-09-21T13:52:58.680Z,18.45
2017-09-21T13:55:53.986Z,18.45
2017-09-21T13:58:49.177Z,18.47
2017-09-21T14:01:44.628Z,18.49
2017-09-21T14:04:39.828Z,18.51
2017-09-21T14:07:35.043Z,18.52
2017-09-21T14:10:30.298Z,18.54
2017-09-21T14:13:25.480Z,18.56
2017-09-21T14:16:20.769Z,18.57
2017-09-21T14:19:16.005Z,18.58
2017-09-21T14:22:11.325Z,18.59
2017-09-21T14:25:06.535Z,18.60
2017-09-21T14:28:01.750Z,18.62
2017-09-21T14:30:56.909Z,18.62
2017-09-21T14:33:52.193Z,18.63
2017-09-21T14:36:47.396Z,18.64
2017-09-21T14:39:42.607Z,18.65
2017-09-21T14:42:37.793Z,18.66
2017-09-21T14:45:33.091Z,18.66
2017-09-21T14:48:28.414Z,18.66
2017-09-21T14:51:23.647Z,18.66
2017-09-21T14:54:18.899Z,18.65
2017-09-21T14:57:14.131Z,18.64
2017-09-21T15:00:09.433Z,18.63
2017-09-21T15:03:04.740Z,18.63
2017-09-21T15:05:59.992Z,18.62
2017-09-21T15:08:55.290Z,18.60
2017-09-21T15:11:50.487Z,18.59
2017-09-21T15:14:45.789Z,18.57
2017-09-21T15:17:40.968Z,18.54
2017-09-21T15:20:36.236Z,18.53
2017-09-21T15:23:31.451Z,18.53
2017-09-21T15:26:26.767Z,18.52
2017-09-21T15:29:21.954Z,18.50
2017-09-21T15:32:17.245Z,18.51
2017-09-21T15:38:07.544Z,18.51
2017-09-21T15:41:02.913Z,18.50
2017-09-21T15:43:58.204Z,18.49
2017-09-21T15:46:53.452Z,18.49
2017-09-21T15:49:48.756Z,18.48
2017-09-21T15:52:44.136Z,18.47
2017-09-21T15:55:39.327Z,18.46
2017-09-21T15:58:34.780Z,18.44
2017-09-21T16:01:29.880Z,18.42
2017-09-21T16:04:25.149Z,18.41
2017-09-21T16:07:20.398Z,18.39
2017-09-21T16:10:15.567Z,18.38
2017-09-21T16:13:10.838Z,18.37
2017-09-21T16:16:06.025Z,18.34
2017-09-21T16:19:01.288Z,18.32
2017-09-21T16:21:56.538Z,18.30
2017-09-21T16:24:51.725Z,18.29
2017-09-21T16:27:46.903Z,18.27
2017-09-21T16:30:42.190Z,18.26
2017-09-21T16:33:37.318Z,18.24
2017-09-21T16:36:32.417Z,18.21
2017-09-21T16:39:27.587Z,18.20
2017-09-21T16:42:22.922Z,18.17
2017-09-21T16:45:18.088Z,18.15
2017-09-21T16:48:13.193Z,18.13
2017-09-21T16:51:08.325Z,18.11
2017-09-21T16:54:03.511Z,18.09
2017-09-21T16:56:58.636Z,18.07
2017-09-21T16:59:53.784Z,18.04
2017-09-21T17:02:48.969Z,18.02
2017-09-21T17:05:44.160Z,18.00
2017-09-21T17:08:39.326Z,17.98
2017-09-21T17:11:34.522Z,17.96
2017-09-21T17:14:29.722Z,17.94
2017-09-21T17:17:24.836Z,17.92
2017-09-21T17:20:19.978Z,17.89
2017-09-21T17:23:15.175Z,17.87
2017-09-21T17:26:10.289Z,17.84
2017-09-21T17:29:05.432Z,17.82
2017-09-21T17:32:00.533Z,17.81
2017-09-21T17:34:55.681Z,17.78
2017-09-21T17:37:50.814Z,17.76
2017-09-21T17:40:46.046Z,17.74
2017-09-21T17:43:41.215Z,17.71
2017-09-21T17:46:36.401Z,17.70
2017-09-21T17:49:31.487Z,17.67
2017-09-21T17:52:26.644Z,17.65
2017-09-21T17:55:21.728Z,17.63
2017-09-21T17:58:16.944Z,17.61
2017-09-21T18:01:12.025Z,17.59
2017-09-21T18:04:07.121Z,17.56
2017-09-21T18:07:02.265Z,17.53
2017-09-21T18:09:57.371Z,17.51
2017-09-21T18:12:52.483Z,17.49
2017-09-21T18:15:47.535Z,17.47
2017-09-21T18:18:42.620Z,17.43
2017-09-21T18:21:37.674Z,17.40
2017-09-21T18:24:32.807Z,17.37
2017-09-21T18:27:27.888Z,17.34
2017-09-21T18:30:22.954Z,17.31
2017-09-21T18:33:18.086Z,17.27
2017-09-21T18:39:08.380Z,17.20
2017-09-21T18:42:03.446Z,17.17
2017-09-21T18:44:58.562Z,17.13
2017-09-21T18:47:53.625Z,17.10
2017-09-21T18:53:43.736Z,17.04
2017-09-21T18:56:38.869Z,17.00
2017-09-21T18:59:33.836Z,16.97
2017-09-21T19:02:28.909Z,16.94
2017-09-21T19:05:24.121Z,16.90
2017-09-21T19:08:19.177Z,16.87
2017-09-21T19:11:14.258Z,16.83
2017-09-21T19:17:04.426Z,16.77
2017-09-21T19:19:59.575Z,16.75
2017-09-21T19:22:54.679Z,16.73
2017-09-21T19:25:49.880Z,16.70
2017-09-21T19:28:44.925Z,16.67
2017-09-21T19:31:40.005Z,16.65
2017-09-21T19:34:35.088Z,16.63
2017-09-21T19:37:30.173Z,16.60
2017-09-21T19:40:25.228Z,16.57
2017-09-21T19:47:40.119Z,16.67
2017-09-21T19:50:24.438Z,16.81
2017-09-21T19:53:18.746Z,16.85
2017-09-21T19:56:13.555Z,16.81
2017-09-21T20:02:03.466Z,16.68
2017-09-21T20:04:58.559Z,16.62
2017-09-21T20:07:53.639Z,16.55
2017-09-21T20:16:38.983Z,16.62
2017-09-21T20:19:23.044Z,16.75
2017-09-21T20:22:17.153Z,16.75
2017-09-21T20:25:11.875Z,16.68
2017-09-21T20:28:06.748Z,16.59
2017-09-21T20:39:24.982Z,16.67
2017-09-21T20:42:19.119Z,16.65
2017-09-21T20:45:13.726Z,16.57
2017-09-21T20:48:08.661Z,16.49
2017-09-21T20:51:03.611Z,16.39
2017-09-21T20:58:52.456Z,16.31
2017-09-21T21:01:36.485Z,16.41
2017-09-21T21:04:30.619Z,16.39
2017-09-21T21:07:25.342Z,16.31
2017-09-21T21:25:18.508Z,16.75
2017-09-21T21:28:12.564Z,16.73
2017-09-21T21:38:39.143Z,16.77
2017-09-21T21:41:23.110Z,16.85
2017-09-21T21:44:17.301Z,16.83
2017-09-21T21:47:11.988Z,16.74
2017-09-21T22:00:05.817Z,16.85
2017-09-21T22:02:49.698Z,16.93
2017-09-21T22:05:43.727Z,16.88
2017-09-21T22:17:06.880Z,16.89
2017-09-21T22:19:50.988Z,16.96
2017-09-21T22:22:45.041Z,16.91
2017-09-21T22:35:50.315Z,16.97
2017-09-21T22:38:34.240Z,17.03
2017-09-21T22:41:28.289Z,16.96
2017-09-21T22:44:22.827Z,16.82
2017-09-21T22:59:49.193Z,16.83
2017-09-21T23:02:43.149Z,16.75
2017-09-21T23:05:37.780Z,16.61
2017-09-21T23:17:01.122Z,16.50
2017-09-21T23:19:45.010Z,16.55
2017-09-21T23:22:39.100Z,16.47
2017-09-21T23:25:33.834Z,16.32
2017-09-21T23:38:27.542Z,16.27
2017-09-21T23:41:11.348Z,16.33
2017-09-21T23:44:05.494Z,16.26
2017-09-21T23:54:09.525Z,16.13
2017-09-21T23:56:53.458Z,16.17
2017-09-21T23:59:47.461Z,16.11
